EFOU

Details ICAO EFOU (OUL)
Name Oulu
Region Finland
Timezone Europe/Helsinki (UTC+3.0)
Plans Departing 130
Arriving 120
Stats Elevation 47 ft / 14 m (AMSL)
Location 64.930059° 25.354560°
Runways 1
Magnetic Variation 10.742° E
Sunrise 2018-05-25 00:22:20 UTC / 2018-05-25 03:22:20 Local
Sunset 2018-05-25 20:11:33 UTC / 2018-05-25 23:11:33 Local
Advertisement - Login to hide

Runways

ID Width Length Bearing (true) Bearing (mag) Surface Threshold Offset Overrun Length
12 197 ft / 60 m 8,180 ft / 2,493 m 121.01° 110.27° Asphalt 0 ft / 0 m 200 ft / 61 m
30 197 ft / 60 m 8,180 ft / 2,493 m 301.05° 290.31° Asphalt 0 ft / 0 m 200 ft / 61 m

Approach Navaids

Runway Type Ident Frequency Range Bearing (true) Bearing (mag) Slope Elevation
12 Localiser OU 109.50 MHz 18 nm / 33 km 121.06° 110.31° - 47 ft / 14 m (AMSL)
12 Glidescope OU 109.50 MHz 10 nm / 19 km 121.03° 110.29° 3.00° 47 ft / 14 m (AMSL)
12 DME OU 109.50 MHz 18 nm / 33 km - - - 100 ft / 30 m (AMSL)

Map

Weather


0- 5 10 15 20 25 30 35+ Temperature / ° C

Clouds and Precipitation
Forecast for 2018-05-25 18:00 UTC. Updated 2 hours ago

Ground ~20,000 ft ~40,000 ft Winds

METAR

EFOU 251850Z AUTO 23010KT CAVOK 14/06 Q1024

TAF

TAF EFOU 251733Z 2518/2618 27012KT CAVOK

Frequencies

Recorded 135.44 MHz ATIS
Tower 119.70 MHz TWR
Recorded 135.45 MHz ATIS
Tower 124.40 MHz TWR
Warning: Do not use this data for real-world aviation or navigation. No guarantee of current accuracy is given.